Home > Products > Valid Products > TAF

000
FTUS44 KBMX 311700
TAFTCL
TAF
KTCL 311733Z 3118/0118 33007KT P6SM SCT050
     FM312000 32011G20KT P6SM OVC040
     FM010000 33011KT P6SM SCT040
     FM011500 34016G23KT P6SM SKC=



000
FTUS44 KBMX 311700
TAFTOI
TAF
KTOI 311733Z 3118/0118 31008KT P6SM SCT070
     FM010100 31015KT P6SM FEW070
     FM011400 33016G25KT P6SM SKC=



000
FTUS44 KBMX 311700
TAFEET
TAF
KEET 311733Z 3118/0118 31006KT P6SM BKN050
     FM312000 33012G21KT P6SM OVC040
     FM010200 33014KT P6SM SCT040
     FM011400 33014G21KT P6SM SKC=



000
FTUS44 KBMX 311700
TAFANB
TAF
KANB 311733Z 3118/0118 30008KT P6SM OVC050
     FM312000 31012G22KT P6SM OVC040
     FM010400 33014KT P6SM SCT040
     FM011400 31016G23KT P6SM SKC=



000
FTUS44 KBMX 311700
TAFBHM
TAF
KBHM 311733Z 3118/0118 32009KT P6SM BKN050
     FM312000 33015G24KT P6SM OVC050
     FM010200 33014KT P6SM SCT040
     FM011300 33017G23KT P6SM SKC=



000
FTUS44 KBMX 311700
TAFMGM
TAF
KMGM 311733Z 3118/0118 30008KT P6SM SCT070
     FM010100 31015KT P6SM FEW070
     FM011300 31016G23KT P6SM SKC=



000
FTUS44 KBMX 311100
TAFEET
TAF
KEET 311121Z 3112/0112 30003KT P6SM SCT070
     FM311600 31006KT P6SM SCT250
     FM312000 33012G21KT P6SM OVC040
     FM010400 33014KT P6SM SCT040=



000
FTUS44 KBMX 311100
TAFANB
TAF
KANB 311121Z 3112/0112 30003KT P6SM SKC
     FM311800 30008KT P6SM VCSH SCT250
     FM312000 31015G25KT P6SM VCSH OVC040
     FM010300 33014KT P6SM SCT040=



000
FTUS44 KBMX 311100
TAFTOI
TAF
KTOI 311121Z 3112/0112 34003KT P6SM SKC
     FM311700 31008KT P6SM SCT070
     FM311900 31012G24KT P6SM BKN040
     FM010500 31012KT P6SM SCT040=



000
FTUS44 KBMX 311100
TAFTCL
TAF
KTCL 311121Z 3112/0112 32003KT P6SM SCT070
     FM311600 33008KT P6SM OVC040
     FM311800 33015G25KT P6SM OVC040
     FM010300 33011KT P6SM SCT040=



000
FTUS44 KBMX 311100
TAFBHM
TAF
KBHM 311121Z 3112/0112 30003KT P6SM BKN070
     FM311600 32009KT P6SM SCT250
     FM312000 33015G24KT P6SM OVC040
     FM010400 33014KT P6SM SCT040=



000
FTUS44 KBMX 311100
TAFMGM
TAF
KMGM 311121Z 3112/0112 33005KT P6SM SKC
     FM311700 30008KT P6SM SCT070
     FM311900 31015G24KT P6SM BKN040
     FM010500 31014KT P6SM SCT040=



000
FTUS44 KBMX 310500
TAFTCL
TAF
KTCL 310520Z 3106/0106 34004KT P6SM SKC
     FM311800 33008KT P6SM SKC
     FM312100 33017KT P6SM OVC050
     FM010300 33011KT P6SM SKC=



000
FTUS44 KBMX 310500
TAFEET
TAF
KEET 310520Z 3106/0106 33003KT P6SM SKC
     FM311800 31006KT P6SM SCT250
     FM312100 33015KT P6SM OVC050
     FM010300 33010KT P6SM SKC=



000
FTUS44 KBMX 310500
TAFTOI
TAF
KTOI 310520Z 3106/0106 34003KT P6SM SKC
     FM311800 31007KT P6SM SKC
     FM312100 31010KT P6SM SCT100
     FM010000 31016KT P6SM BKN050=



000
FTUS44 KBMX 310500
TAFMGM
TAF
KMGM 310520Z 3106/0106 33005KT P6SM SKC
     FM311800 30008KT P6SM SKC
     FM312100 31012KT P6SM BKN100
     FM010000 31016KT P6SM BKN050=



000
FTUS44 KBMX 310500
TAFBHM
TAF
KBHM 310520Z 3106/0106 34004KT P6SM SKC
     FM311800 32009KT P6SM SCT250
     FM312100 33015KT P6SM OVC050
     FM010300 33012KT P6SM SKC=



000
FTUS44 KBMX 310500
TAFANB
TAF
KANB 310520Z 3106/0106 35003KT P6SM SKC
     FM311800 29007KT P6SM SCT250
     FM312100 31016KT P6SM OVC050
     FM010300 33010KT P6SM SKC=



000
FTUS44 KBMX 302300
TAFBHM
TAF
KBHM 302327Z 3100/3124 34004KT P6SM SKC
     FM311800 32009KT P6SM SCT250
     FM312100 33013KT P6SM OVC050=



000
FTUS44 KBMX 302300
TAFANB
TAF
KANB 302327Z 3100/3124 35003KT P6SM SKC
     FM311800 29007KT P6SM SCT250
     FM312100 31010KT P6SM OVC050=



000
FTUS44 KBMX 302300
TAFEET
TAF
KEET 302327Z 3100/3124 33003KT P6SM SKC
     FM311800 31006KT P6SM SCT250
     FM312100 33010KT P6SM OVC050=



000
FTUS44 KBMX 302300
TAFTOI
TAF
KTOI 302327Z 3100/3124 34003KT P6SM SKC
     FM311800 31007KT P6SM SKC
     FM312100 31010KT P6SM SCT100=



000
FTUS44 KBMX 302300
TAFMGM
TAF
KMGM 302327Z 3100/3124 33005KT P6SM SKC
     FM311800 30008KT P6SM SKC
     FM312100 31012KT P6SM BKN100=



000
FTUS44 KBMX 302300
TAFTCL
TAF
KTCL 302327Z 3100/3124 34004KT P6SM SKC
     FM311800 33008KT P6SM SKC
     FM312100 33017KT P6SM OVC050=



000
FTUS44 KBMX 301700
TAFEET
TAF
KEET 301725Z 3018/3118 01006G12KT P6SM SKC
     FM302300 33003KT P6SM SKC=



000
FTUS44 KBMX 301700
TAFTCL
TAF
KTCL 301725Z 3018/3118 02008G15KT P6SM SKC
     FM302300 34004KT P6SM SKC=



000
FTUS44 KBMX 301700
TAFANB
TAF
KANB 301725Z 3018/3118 36007G13KT P6SM SKC
     FM302300 35003KT P6SM SKC=



000
FTUS44 KBMX 301700
TAFTOI
TAF
KTOI 301725Z 3018/3118 36009G16KT P6SM SKC
     FM302300 34003KT P6SM SKC=



000
FTUS44 KBMX 301700
TAFBHM
TAF
KBHM 301725Z 3018/3118 02007G15KT P6SM SKC
     FM302300 34004KT P6SM SKC=



000
FTUS44 KBMX 301700
TAFMGM
TAF
KMGM 301725Z 3018/3118 03008G15KT P6SM SKC
     FM302300 33005KT P6SM SKC=



000
FTUS44 KBMX 301400 AAA
TAFANB
TAF AMD
KANB 301412Z 3014/3112 00000KT 3/4SM BR OVC002
     FM301445 01003KT 4SM BR SKC
     FM301500 01003KT P6SM SKC
     FM310300 34007KT P6SM SCT150=



000
FTUS44 KBMX 301100
TAFTOI
TAF
KTOI 301124Z 3012/3112 34005KT P6SM SCT080
     FM310300 00000KT P6SM SCT150=



000
FTUS44 KBMX 301100
TAFBHM
TAF
KBHM 301124Z 3012/3112 35006KT P6SM SKC
     FM310300 34002KT P6SM BKN150=



000
FTUS44 KBMX 301100
TAFEET
TAF
KEET 301124Z 3012/3112 34005KT P6SM SKC
     FM310300 00000KT P6SM BKN150=



000
FTUS44 KBMX 301100
TAFMGM
TAF
KMGM 301124Z 3012/3112 34005KT P6SM SKC
     FM310300 32003KT P6SM SCT150=



000
FTUS44 KBMX 301100
TAFTCL
TAF
KTCL 301124Z 3012/3112 35006KT P6SM SKC
     FM310300 00000KT P6SM BKN150=



000
FTUS44 KBMX 301100
TAFANB
TAF
KANB 301124Z 3012/3112 00000KT 1/2SM FG VV001
      TEMPO 3012/3014 1SM BR VV002
     FM301400 35005KT P6SM SKC
     FM310300 34007KT P6SM SCT150=



000
FTUS44 KBMX 301000 AAD
TAFMGM
TAF AMD
KMGM 301037Z 3011/3106 00000KT 6SM BR SKC
     FM301400 34007KT P6SM SKC=



000
FTUS44 KBMX 301000 AAD
TAFMGM
TAF AMD
KMGM 301037Z 3011/3106 00000KT 6SM BR SKC
     FM301400 34007KT P6SM SKC=



000
FTUS44 KBMX 300900 AAB
TAFTOI
TAF AMD
KTOI 300955Z 3010/3106 33003KT P6SM BKN080
     FM301800 34007KT P6SM SKC=



000
FTUS44 KBMX 300900 AAC
TAFMGM
TAF AMD
KMGM 300948Z 3010/3106 00000KT 2SM BR SKC
      TEMPO 3010/3013 1/4SM FG VV002
     FM301400 34007KT P6SM SKC=



000
FTUS44 KBMX 300900 AAB
TAFMGM
TAF AMD
KMGM 300902Z 3009/3106 00000KT 6SM BR SKC
      TEMPO 3009/3012 3SM BR
     FM301800 34007KT P6SM SKC=



000
FTUS44 KBMX 300900 AAA
TAFANB
TAF AMD
KANB 300901Z 3009/3106 00000KT 1/4SM FG VV001
      TEMPO 3009/3013 1SM BR VV002
     FM301300 00000KT P6SM SKC
     FM301800 34007KT P6SM SKC=



000
FTUS44 KBMX 300700 AAA
TAFTOI
TAF AMD
KTOI 300732Z 3008/3106 33003KT P6SM SKC
      TEMPO 3010/3013 1SM BR
     FM301800 34007KT P6SM SKC=



000
FTUS44 KBMX 300700 AAA
TAFMGM
TAF AMD
KMGM 300731Z 3008/3106 00000KT P6SM SKC
      TEMPO 3009/3012 1SM BR
     FM301800 34007KT P6SM SKC=



000
FTUS44 KBMX 300500
TAFEET
TAF
KEET 300529Z 3006/3106 00000KT P6SM SKC
     FM301800 34007KT P6SM SKC=



000
FTUS44 KBMX 300500
TAFANB
TAF
KANB 300529Z 3006/3106 00000KT 1/4SM FG VV001
     FM300800 00000KT 2SM BR SCT002
      TEMPO 3008/3011 1SM BR VV002
     FM301300 00000KT P6SM SKC
     FM301800 34007KT P6SM SKC=



000
FTUS44 KBMX 300500
TAFTOI
TAF
KTOI 300529Z 3006/3106 33003KT P6SM SKC
      TEMPO 3008/3012 1SM BR
     FM301800 34007KT P6SM SKC=



000
FTUS44 KBMX 300500
TAFMGM
TAF
KMGM 300529Z 3006/3106 00000KT P6SM SKC
      TEMPO 3008/3012 1SM BR
     FM301800 34007KT P6SM SKC=



000
FTUS44 KBMX 300500
TAFTCL
TAF
KTCL 300529Z 3006/3106 35005KT P6SM SKC
     FM301800 35007KT P6SM SKC=



000
FTUS44 KBMX 300500
TAFBHM
TAF
KBHM 300529Z 3006/3106 35004KT P6SM SKC
     FM301800 34007KT P6SM SKC=



000
FTUS44 KBMX 300200 AAB
TAFTOI
TAF AMD
KTOI 300207Z 3002/3024 31004KT P6SM SCT025 BKN050
      TEMPO 3002/3003 BKN015
     FM300400 33003KT P6SM SKC
     FM301800 34007KT P6SM SKC=



000
FTUS44 KBMX 300100 AAB
TAFANB
TAF AMD
KANB 300147Z 3002/3024 00000KT 2SM BR SKC
      TEMPO 3002/3006 1SM BR
     FM301300 34005KT P6SM SKC=



000
FTUS44 KBMX 300100 CCA
TAFANB
TAF COR
KANB 300147Z 3002/3024 00000KT 2SM BR SKC
      TEMPO 3002/3006 1SM BR VV002
     FM301300 34005KT P6SM SKC=



000
FTUS44 KBMX 300000 AAA
TAFTOI
TAF AMD
KTOI 300028Z 3000/3024 31004KT P6SM SCT025 BKN050
      TEMPO 3000/3002 BKN015
     FM300200 33003KT P6SM SKC
     FM301800 34007KT P6SM SKC=



000
FTUS44 KBMX 300000 AAA
TAFANB
TAF AMD
KANB 300028Z 3000/3024 35004KT P6SM SKC
      TEMPO 3000/3003 1SM BR=



000
FTUS44 KBMX 292300 CCA
TAFTOI
TAF COR
KTOI 292326Z 3000/3024 31004KT P6SM SCT025 BKN050
      TEMPO 3001/3002 BKN025
     FM300200 33003KT P6SM SKC
     FM301800 34007KT P6SM SKC=



000
FTUS44 KBMX 292300 CCA
TAFMGM
TAF COR
KMGM 292323Z 3000/3024 30006KT P6SM BKN020 BKN050
     FM300100 34003KT P6SM SKC
     FM301800 34007KT P6SM SKC=



000
FTUS44 KBMX 292300
TAFBHM
TAF
KBHM 292320Z 3000/3024 35004KT P6SM SKC
     FM301800 34007KT P6SM SKC=



000
FTUS44 KBMX 292300
TAFMGM
TAF
KMGM 292320Z 3000/3024 30006KT P6SM BKN050
     FM300200 34003KT P6SM SKC
     FM301800 34007KT P6SM SKC=



000
FTUS44 KBMX 292300
TAFANB
TAF
KANB 292320Z 3000/3024 35004KT P6SM SKC=



000
FTUS44 KBMX 292300
TAFTOI
TAF
KTOI 292320Z 3000/3024 31004KT P6SM BKN050
     FM300200 33003KT P6SM SKC
     FM301800 34007KT P6SM SKC=



000
FTUS44 KBMX 292300
TAFEET
TAF
KEET 292320Z 3000/3024 34004KT P6SM SKC=



000
FTUS44 KBMX 292300
TAFTCL
TAF
KTCL 292320Z 3000/3024 35005KT P6SM SKC
     FM301800 35007KT P6SM SKC=



000
FTUS44 KBMX 292000 AAA
TAFTOI
TAF AMD
KTOI 292059Z 2921/3018 31004KT P6SM VCSH BKN050
     FM300000 33003KT P6SM SKC=



000
FTUS44 KBMX 292000 AAA
TAFMGM
TAF AMD
KMGM 292058Z 2921/3018 30006KT P6SM BKN050
     FM292300 34003KT P6SM SKC=



000
FTUS44 KBMX 291900 AAB
TAFEET
TAF AMD
KEET 291903Z 2919/3018 33006KT P6SM SCT004 BKN008
      TEMPO 2919/2920 P6SM SCT008 BKN015
     FM292000 32005KT P6SM BKN015
     FM292100 34003KT P6SM SKC=



000
FTUS44 KBMX 291800 AAA
TAFBHM
TAF AMD
KBHM 291834Z 2919/3018 34009KT P6SM BKN023 BKN180
      TEMPO 2919/2920 35010KT P6SM BKN010 BKN023
     FM292100 35004KT P6SM SKC=



000
FTUS44 KBMX 291800 AAA
TAFEET
TAF AMD
KEET 291803Z 2918/3018 32005KT 5SM BR BKN008 OVC015
      TEMPO 2918/2920 2SM BR BKN003
     FM292000 32005KT P6SM OVC015
     FM292100 34003KT P6SM SKC=



000
FTUS44 KBMX 291700
TAFBHM
TAF
KBHM 291727Z 2918/3018 34007KT 4SM BR OVC015
      TEMPO 2918/2919 2SM BR BKN007
     FM291900 33009KT P6SM OVC025
     FM292100 35004KT P6SM SKC=



000
FTUS44 KBMX 291700
TAFTOI
TAF
KTOI 291727Z 2918/3018 30007KT 6SM BR BKN015
     FM292300 33008KT P6SM BKN035
     FM300000 33003KT P6SM SKC=



000
FTUS44 KBMX 291700
TAFTCL
TAF
KTCL 291727Z 2918/3018 35007KT P6SM OVC015
     FM291900 34008KT P6SM SKC=



000
FTUS44 KBMX 291700
TAFEET
TAF
KEET 291727Z 2918/3018 32005KT 5SM BR BKN008 OVC015
     FM292000 32005KT P6SM OVC015
     FM292100 34003KT P6SM SKC=



000
FTUS44 KBMX 291700
TAFANB
TAF
KANB 291727Z 2918/3018 30007KT 4SM BR OVC007
     FM291930 34007KT P6SM BKN015
     FM292200 33006KT P6SM SKC=



000
FTUS44 KBMX 291700
TAFMGM
TAF
KMGM 291727Z 2918/3018 30005KT 6SM BR BKN015
     FM292200 33006KT P6SM BKN035
     FM292300 34003KT P6SM SKC=



000
FTUS44 KBMX 291600 AAB
TAFBHM
TAF AMD
KBHM 291624Z 2916/3012 34010KT 1/2SM FG BKN001 OVC007
     FM291700 32008KT 2SM BR SCT001 OVC007
     FM291800 34007KT P6SM BKN035
     FM292100 35004KT P6SM SKC=



000
FTUS44 KBMX 291500 AAA
TAFTCL
TAF AMD
KTCL 291520Z 2915/3012 30003KT P6SM OVC008
     FM291700 35007KT P6SM OVC015
     FM292000 34008KT P6SM SKC=



000
FTUS44 KBMX 291500 AAA
TAFANB
TAF AMD
KANB 291513Z 2915/3012 24003KT P6SM FEW050 BKN070 OVC110
     FM291600 34007KT P6SM BKN015
     FM292200 33006KT P6SM SKC=



000
FTUS44 KBMX 291500 AAB
TAFEET
TAF AMD
KEET 291506Z 2915/3012 20004KT P6SM BKN006 OVC045
     FM291800 32005KT P6SM OVC015
     FM292100 34003KT P6SM SKC=



000
FTUS44 KBMX 291500 AAA
TAFBHM
TAF AMD
KBHM 291504Z 2915/3012 27006KT P6SM BKN008 BKN035 OVC070
     FM291800 34007KT P6SM BKN035
     FM292100 35004KT P6SM SKC=



000
FTUS44 KBMX 291400 AAA
TAFEET
TAF AMD
KEET 291452Z 2915/3012 25002KT P6SM OVC045
     FM291600 34007KT P6SM BKN020
     FM292000 34003KT P6SM SKC=



000
FTUS44 KBMX 291200 AAA
TAFTOI
TAF AMD
KTOI 291258Z 2913/3012 18003KT P6SM SCT020
     FM291600 28004KT 6SM BR VCSH BKN035
     FM292300 33008KT P6SM BKN040
     FM300200 33003KT P6SM SKC=



000
FTUS44 KBMX 291200 AAA
TAFMGM
TAF AMD
KMGM 291246Z 2913/3012 20003KT 4SM BR SCT025 BKN050
     FM291400 28004KT 6SM BR VCSH BKN035
     FM292300 33006KT P6SM BKN040
     FM300200 34003KT P6SM SKC=



000
FTUS44 KBMX 291100
TAFMGM
TAF
KMGM 291128Z 2912/3012 20003KT P6SM SCT025 BKN050
     FM291500 28004KT 6SM BR VCSH BKN035
     FM292300 33006KT P6SM BKN040
     FM300200 34003KT P6SM SKC=



000
FTUS44 KBMX 291100
TAFTCL
TAF
KTCL 291128Z 2912/3012 00000KT 6SM -RA VCTS SCT015 BKN025CB
     FM291230 24005KT P6SM VCSH BKN007 OVC015
     FM291500 36008KT P6SM BKN035
     FM292300 36005KT P6SM SKC=



000
FTUS44 KBMX 291100
TAFTOI
TAF
KTOI 291128Z 2912/3012 18003KT P6SM SCT007 BKN015 OVC025
     FM291600 28004KT 6SM BR VCSH BKN035
     FM292300 33008KT P6SM BKN040
     FM300200 33003KT P6SM SKC=



000
FTUS44 KBMX 291100
TAFANB
TAF
KANB 291128Z 2912/3012 25005KT 6SM -RA VCTS SCT015 OVC035CB
      TEMPO 2912/2914 4SM TSRA OVC015CB
     FM291400 29005KT P6SM VCSH BKN007 OVC015
     FM291600 34007KT P6SM BKN035
     FM300100 36003KT P6SM SKC=



000
FTUS44 KBMX 291100
TAFEET
TAF
KEET 291128Z 2912/3012 25005KT 6SM -RA VCTS SCT012 OVC035CB
      TEMPO 2912/2913 4SM TSRA BKN015CB
     FM291330 28004KT P6SM VCSH BKN007 OVC015
     FM291600 34007KT P6SM BKN035
     FM292000 34003KT P6SM SKC=



000
FTUS44 KBMX 291100
TAFBHM
TAF
KBHM 291128Z 2912/3012 25005KT 6SM -RA VCTS SCT007 BKN050CB
     FM291300 27005KT P6SM VCSH BKN007 OVC010
     FM291500 33007KT P6SM BKN035
     FM300100 35004KT P6SM SKC=



000
FTUS44 KBMX 290900 AAB
TAFBHM
TAF AMD
KBHM 290934Z 2910/3006 18003KT P6SM BKN250
     FM291000 25005KT 6SM -RA VCTS SCT012 OVC035CB
      TEMPO 2911/2913 2SM TSRA BKN015CB
     FM291500 36007KT P6SM BKN035
     FM292000 35008KT P6SM SCT100=



000
FTUS44 KBMX 290900 AAB
TAFTCL
TAF AMD
KTCL 290919Z 2909/3006 24005KT 6SM -RA VCTS SCT015 OVC035CB
      TEMPO 2910/2912 2SM TSRA BKN015CB
     FM291500 36007KT P6SM BKN035
     FM292000 36008KT P6SM SCT100=



000
FTUS44 KBMX 290800 AAA
TAFEET
TAF AMD
KEET 290820Z 2908/3006 18003KT P6SM BKN250
     FM291000 23004KT P6SM VCSH BKN050
     FM291100 25005KT 4SM -RA VCTS SCT012 OVC025CB
      TEMPO 2911/2913 2SM TSRA BKN015CB
     FM291500 36007KT P6SM BKN035
     FM292000 35008KT P6SM SCT100=



000
FTUS44 KBMX 290800 AAA
TAFBHM
TAF AMD
KBHM 290819Z 2908/3006 18003KT P6SM BKN250
     FM291000 23004KT P6SM VCSH BKN050
     FM291100 25005KT 4SM -RA VCTS SCT012 OVC025CB
      TEMPO 2911/2913 2SM TSRA BKN015CB
     FM291500 36007KT P6SM BKN035
     FM292000 35008KT P6SM SCT100=



000
FTUS44 KBMX 290800 AAA
TAFTCL
TAF AMD
KTCL 290816Z 2908/3006 18003KT P6SM BKN250
     FM290900 21004KT P6SM VCSH BKN050
     FM291000 24005KT 4SM -RA VCTS SCT015 OVC025CB
      TEMPO 2910/2912 2SM TSRA BKN015CB
     FM291500 36007KT P6SM BKN035
     FM292000 36008KT P6SM SCT100=



000
FTUS44 KBMX 290800 AAA
TAFMGM
TAF AMD
KMGM 290803Z 2908/3006 18003KT P6SM SCT025 BKN050
      TEMPO 2910/2913 4SM BR
     FM291600 28004KT 4SM BR VCSH BKN025
     FM292300 33008KT P6SM BKN040
     FM300100 36006KT P6SM SCT080=



000
FTUS44 KBMX 290800 AAA
TAFTOI
TAF AMD
KTOI 290803Z 2908/3006 18003KT P6SM SCT025 BKN050
      TEMPO 2910/2913 4SM BR
     FM291600 28004KT 4SM BR VCSH BKN025
     FM292300 33008KT P6SM BKN040
     FM300100 36006KT P6SM SCT080=



000
FTUS44 KBMX 290500
TAFTOI
TAF
KTOI 290527Z 2906/3006 18003KT P6SM SCT250
     FM290800 00000KT 1SM BR BKN005
     FM291000 20002KT 1/2SM FG OVC005
     FM291600 28004KT 4SM BR VCSH BKN025
     FM292300 33008KT P6SM BKN040
     FM300100 36006KT P6SM SCT080=



000
FTUS44 KBMX 290500
TAFBHM
TAF
KBHM 290527Z 2906/3006 18003KT P6SM BKN250
     FM290900 23004KT P6SM VCSH BKN025
     FM291100 25005KT 4SM -RA BR SCT005 OVC012
     FM291300 28006KT 5SM -RA BKN007 OVC012
      TEMPO 2915/2918 P6SM NSW SCT007 OVC018
     FM291800 36007KT P6SM BKN035
     FM292000 35008KT P6SM SCT100=



000
FTUS44 KBMX 290500
TAFEET
TAF
KEET 290527Z 2906/3006 00000KT P6SM BKN250
     FM291000 23004KT P6SM VCSH BKN025
     FM291200 25005KT 4SM -RA BR SCT005 OVC012
     FM291400 28006KT 6SM -RA BR BKN007 OVC012
      TEMPO 2916/2919 P6SM NSW SCT007 OVC018
     FM291900 36007KT P6SM BKN035
     FM292100 35008KT P6SM SCT100=



000
FTUS44 KBMX 290500
TAFMGM
TAF
KMGM 290527Z 2906/3006 18003KT P6SM SCT250
     FM290800 00000KT 1SM BR BKN005
     FM291000 20002KT 1/2SM FG OVC005
     FM291600 28004KT 4SM BR VCSH BKN025
     FM292300 33008KT P6SM BKN040
     FM300100 36006KT P6SM SCT080=



000
FTUS44 KBMX 290500
TAFTCL
TAF
KTCL 290527Z 2906/3006 18003KT P6SM BKN250
     FM290900 21004KT P6SM VCSH BKN025
     FM291100 24005KT 4SM -RA BR SCT005 OVC012
     FM291300 28006KT 6SM -RA BR BKN007 OVC012
      TEMPO 2915/2918 P6SM NSW SCT007 OVC018
     FM291800 36007KT P6SM BKN035
     FM292000 36008KT P6SM SCT100=



000
FTUS44 KBMX 290500
TAFANB
TAF
KANB 290527Z 2906/3006 00000KT P6SM BKN250
     FM291000 23004KT P6SM VCSH BKN025
     FM291200 25005KT 4SM -RA BR SCT005 OVC012
     FM291400 28006KT 4SM -RA BR BKN007 OVC012
      TEMPO 2916/2919 6SM BR SCT007 OVC018
     FM291900 36007KT P6SM BKN035
     FM292100 35008KT P6SM SCT100=



000
FTUS44 KBMX 282300
TAFANB
TAF
KANB 282327Z 2900/2924 00000KT P6SM SCT150 OVC250
     FM290500 18003KT 5SM BR BKN150
     FM290900 20004KT 4SM BR VCSH BKN040
     FM291230 26004KT 2SM -RA BR BKN007 OVC012
     FM291500 34006KT 4SM -RA BKN005 OVC012
     FM292000 02007KT P6SM BKN040=



000
FTUS44 KBMX 282300
TAFMGM
TAF
KMGM 282327Z 2900/2924 00000KT P6SM BKN250
     FM290600 00000KT 4SM BR BKN020
     FM290800 00000KT 1SM BR BKN005
     FM291000 20002KT 1/2SM FG OVC005
     FM291400 28004KT 4SM BR VCSH OVC007
     FM291900 31008KT P6SM VCTS BKN025CB=



000
FTUS44 KBMX 282300
TAFTCL
TAF
KTCL 282327Z 2900/2924 18005KT P6SM SCT150 OVC250
     FM290500 20004KT P6SM VCSH BKN040 OVC150
     FM290900 23004KT P6SM VCSH BKN025
     FM291100 29005KT 2SM -RA BR BKN005 OVC012
     FM291530 01006KT 4SM -RA BR SCT007 OVC012
     FM291800 02007KT P6SM BKN040=



000
FTUS44 KBMX 282300
TAFEET
TAF
KEET 282327Z 2900/2924 00000KT P6SM SCT150 OVC250
     FM290500 18003KT 5SM BR BKN150
     FM290900 20004KT 4SM BR VCSH BKN040
     FM291200 26004KT 2SM -RA BR BKN007 OVC012
     FM291500 34006KT 4SM -RA BKN005 OVC012
     FM292000 02007KT P6SM BKN040=



000
FTUS44 KBMX 282300
TAFTOI
TAF
KTOI 282327Z 2900/2924 00000KT P6SM BKN250
     FM290600 00000KT 4SM BR BKN020
     FM290800 00000KT 1SM BR BKN005
     FM291000 20002KT 1/2SM FG OVC005
     FM291400 28004KT 4SM BR VCSH OVC007
     FM291900 31008KT P6SM VCTS BKN025CB=



000
FTUS44 KBMX 282300
TAFBHM
TAF
KBHM 282327Z 2900/2924 18005KT P6SM SCT150 OVC250
     FM290500 20004KT P6SM VCSH BKN040 OVC150
     FM290900 23004KT P6SM VCSH BKN025
     FM291100 29005KT 2SM -RA BR BKN005 OVC012
     FM291500 01006KT 4SM -RA BR SCT007 OVC012
     FM291800 02007KT P6SM BKN040=



    US Dept of Commerce
    National Oceanic and Atmospheric Administration
    National Weather Service
    1325 East West Highway
    Silver Spring, MD 20910
    Page Author: NWS Internet Services Team
Disclaimer
Information Quality
Credits
Glossary
Privacy Policy
Freedom of Information Act (FOIA)
About Us
Career Opportunities